sensor_id;sensor_type;location;lat;lon;timestamp;pressure;altitude;pressure_sealevel;temperature
35582;BMP180;21687;48.900;9.188;2023-05-10T00:01:39;97824.00;;;12.50
35582;BMP180;21687;48.900;9.188;2023-05-10T00:04:06;97831.00;;;12.40
35582;BMP180;21687;48.900;9.188;2023-05-10T00:09:55;97820.00;;;12.20
35582;BMP180;21687;48.900;9.188;2023-05-10T00:12:21;97821.00;;;12.10
35582;BMP180;21687;48.900;9.188;2023-05-10T00:14:48;97826.00;;;12.00
35582;BMP180;21687;48.900;9.188;2023-05-10T00:17:14;97819.00;;;11.90
35582;BMP180;21687;48.900;9.188;2023-05-10T00:19:40;97822.00;;;11.90
35582;BMP180;21687;48.900;9.188;2023-05-10T00:22:07;97818.00;;;11.90
35582;BMP180;21687;48.900;9.188;2023-05-10T00:24:33;97827.00;;;11.90
35582;BMP180;21687;48.900;9.188;2023-05-10T00:26:59;97815.00;;;11.80
35582;BMP180;21687;48.900;9.188;2023-05-10T00:29:26;97806.00;;;11.70
35582;BMP180;21687;48.900;9.188;2023-05-10T00:31:54;97823.00;;;11.70
35582;BMP180;21687;48.900;9.188;2023-05-10T00:34:20;97819.00;;;11.70
35582;BMP180;21687;48.900;9.188;2023-05-10T00:36:46;97822.00;;;11.70
35582;BMP180;21687;48.900;9.188;2023-05-10T00:39:13;97814.00;;;11.70
35582;BMP180;21687;48.900;9.188;2023-05-10T00:41:39;97817.00;;;11.70
35582;BMP180;21687;48.900;9.188;2023-05-10T00:44:05;97822.00;;;11.60
35582;BMP180;21687;48.900;9.188;2023-05-10T00:46:31;97823.00;;;11.60
35582;BMP180;21687;48.900;9.188;2023-05-10T00:48:58;97824.00;;;11.50
35582;BMP180;21687;48.900;9.188;2023-05-10T00:51:24;97827.00;;;11.50
35582;BMP180;21687;48.900;9.188;2023-05-10T00:53:51;97815.00;;;11.50
35582;BMP180;21687;48.900;9.188;2023-05-10T00:56:18;97815.00;;;11.50
35582;BMP180;21687;48.900;9.188;2023-05-10T00:58:46;97834.00;;;11.50
35582;BMP180;21687;48.900;9.188;2023-05-10T01:01:13;97844.00;;;11.50
35582;BMP180;21687;48.900;9.188;2023-05-10T01:03:40;97841.00;;;11.50
35582;BMP180;21687;48.900;9.188;2023-05-10T01:06:07;97842.00;;;11.50
35582;BMP180;21687;48.900;9.188;2023-05-10T01:08:33;97843.00;;;11.50
35582;BMP180;21687;48.900;9.188;2023-05-10T01:10:59;97849.00;;;11.50
35582;BMP180;21687;48.900;9.188;2023-05-10T01:13:47;97840.00;;;11.50
35582;BMP180;21687;48.900;9.188;2023-05-10T01:16:16;97844.00;;;11.40
35582;BMP180;21687;48.900;9.188;2023-05-10T01:18:43;97845.00;;;11.40
35582;BMP180;21687;48.900;9.188;2023-05-10T01:21:33;97844.00;;;11.40
35582;BMP180;21687;48.900;9.188;2023-05-10T01:29:48;97843.00;;;11.40
35582;BMP180;21687;48.900;9.188;2023-05-10T01:35:16;97841.00;;;11.40
35582;BMP180;21687;48.900;9.188;2023-05-10T01:43:11;97853.00;;;11.50
35582;BMP180;21687;48.900;9.188;2023-05-10T01:48:39;97853.00;;;11.40
35582;BMP180;21687;48.900;9.188;2023-05-10T01:51:09;97851.00;;;11.40
35582;BMP180;21687;48.900;9.188;2023-05-10T01:53:38;97848.00;;;11.40
35582;BMP180;21687;48.900;9.188;2023-05-10T01:56:05;97852.00;;;11.30
35582;BMP180;21687;48.900;9.188;2023-05-10T01:58:34;97850.00;;;11.40
35582;BMP180;21687;48.900;9.188;2023-05-10T02:01:04;97854.00;;;11.40
35582;BMP180;21687;48.900;9.188;2023-05-10T02:03:31;97857.00;;;11.30
35582;BMP180;21687;48.900;9.188;2023-05-10T02:05:58;97854.00;;;11.30
35582;BMP180;21687;48.900;9.188;2023-05-10T02:08:25;97867.00;;;11.30
35582;BMP180;21687;48.900;9.188;2023-05-10T02:10:55;97874.00;;;11.20
35582;BMP180;21687;48.900;9.188;2023-05-10T02:13:24;97867.00;;;11.30
35582;BMP180;21687;48.900;9.188;2023-05-10T02:15:52;97865.00;;;11.20
35582;BMP180;21687;48.900;9.188;2023-05-10T02:18:19;97864.00;;;11.20
35582;BMP180;21687;48.900;9.188;2023-05-10T02:20:46;97866.00;;;11.20
35582;BMP180;21687;48.900;9.188;2023-05-10T02:23:14;97863.00;;;11.20
35582;BMP180;21687;48.900;9.188;2023-05-10T02:25:42;97872.00;;;11.20
35582;BMP180;21687;48.900;9.188;2023-05-10T02:28:09;97866.00;;;11.20
35582;BMP180;21687;48.900;9.188;2023-05-10T02:30:37;97870.00;;;11.30
35582;BMP180;21687;48.900;9.188;2023-05-10T02:33:06;97871.00;;;11.20
35582;BMP180;21687;48.900;9.188;2023-05-10T02:35:34;97879.00;;;11.20
35582;BMP180;21687;48.900;9.188;2023-05-10T02:38:01;97878.00;;;11.20
35582;BMP180;21687;48.900;9.188;2023-05-10T02:40:28;97887.00;;;11.20
35582;BMP180;21687;48.900;9.188;2023-05-10T02:42:56;97889.00;;;11.30
35582;BMP180;21687;48.900;9.188;2023-05-10T02:45:26;97892.00;;;11.30
35582;BMP180;21687;48.900;9.188;2023-05-10T02:47:54;97899.00;;;11.30
35582;BMP180;21687;48.900;9.188;2023-05-10T02:50:21;97897.00;;;11.30
35582;BMP180;21687;48.900;9.188;2023-05-10T02:52:50;97899.00;;;11.40
35582;BMP180;21687;48.900;9.188;2023-05-10T02:55:22;97885.00;;;11.40
35582;BMP180;21687;48.900;9.188;2023-05-10T02:58:00;97882.00;;;11.40
35582;BMP180;21687;48.900;9.188;2023-05-10T03:00:26;97900.00;;;11.40
35582;BMP180;21687;48.900;9.188;2023-05-10T03:02:53;97898.00;;;11.40
35582;BMP180;21687;48.900;9.188;2023-05-10T03:05:20;97903.00;;;11.40
35582;BMP180;21687;48.900;9.188;2023-05-10T03:07:46;97902.00;;;11.40
35582;BMP180;21687;48.900;9.188;2023-05-10T03:10:13;97895.00;;;11.40
35582;BMP180;21687;48.900;9.188;2023-05-10T03:13:16;97897.00;;;11.50
35582;BMP180;21687;48.900;9.188;2023-05-10T03:18:44;97907.00;;;11.50
35582;BMP180;21687;48.900;9.188;2023-05-10T03:21:11;97908.00;;;11.50
35582;BMP180;21687;48.900;9.188;2023-05-10T03:23:52;97913.00;;;11.50
35582;BMP180;21687;48.900;9.188;2023-05-10T03:26:25;97918.00;;;11.60
35582;BMP180;21687;48.900;9.188;2023-05-10T03:28:53;97907.00;;;11.60
35582;BMP180;21687;48.900;9.188;2023-05-10T03:31:20;97917.00;;;11.60
35582;BMP180;21687;48.900;9.188;2023-05-10T03:33:50;97924.00;;;11.60
35582;BMP180;21687;48.900;9.188;2023-05-10T03:36:17;97916.00;;;11.60
35582;BMP180;21687;48.900;9.188;2023-05-10T03:38:44;97916.00;;;11.60
35582;BMP180;21687;48.900;9.188;2023-05-10T03:41:10;97918.00;;;11.60
35582;BMP180;21687;48.900;9.188;2023-05-10T03:43:36;97918.00;;;11.60
35582;BMP180;21687;48.900;9.188;2023-05-10T03:46:06;97919.00;;;11.60
35582;BMP180;21687;48.900;9.188;2023-05-10T03:48:33;97910.00;;;11.70
35582;BMP180;21687;48.900;9.188;2023-05-10T03:50:59;97918.00;;;11.60
35582;BMP180;21687;48.900;9.188;2023-05-10T03:53:26;97918.00;;;11.60
35582;BMP180;21687;48.900;9.188;2023-05-10T03:55:53;97902.00;;;11.70
35582;BMP180;21687;48.900;9.188;2023-05-10T03:58:19;97913.00;;;11.70
35582;BMP180;21687;48.900;9.188;2023-05-10T04:00:45;97920.00;;;11.70
35582;BMP180;21687;48.900;9.188;2023-05-10T04:03:12;97927.00;;;11.70
35582;BMP180;21687;48.900;9.188;2023-05-10T04:05:39;97918.00;;;11.70
35582;BMP180;21687;48.900;9.188;2023-05-10T04:08:06;97924.00;;;11.70
35582;BMP180;21687;48.900;9.188;2023-05-10T04:10:32;97918.00;;;11.70
35582;BMP180;21687;48.900;9.188;2023-05-10T04:12:59;97919.00;;;11.70
35582;BMP180;21687;48.900;9.188;2023-05-10T04:15:25;97920.00;;;11.70
35582;BMP180;21687;48.900;9.188;2023-05-10T04:17:51;97929.00;;;11.70
35582;BMP180;21687;48.900;9.188;2023-05-10T04:20:18;97917.00;;;11.70
35582;BMP180;21687;48.900;9.188;2023-05-10T04:22:44;97919.00;;;11.70
35582;BMP180;21687;48.900;9.188;2023-05-10T04:25:10;97923.00;;;11.70
35582;BMP180;21687;48.900;9.188;2023-05-10T04:27:37;97929.00;;;11.70
35582;BMP180;21687;48.900;9.188;2023-05-10T04:30:03;97924.00;;;11.70
35582;BMP180;21687;48.900;9.188;2023-05-10T04:32:30;97925.00;;;11.80
35582;BMP180;21687;48.900;9.188;2023-05-10T04:34:56;97930.00;;;11.80
35582;BMP180;21687;48.900;9.188;2023-05-10T04:37:23;97936.00;;;11.70
35582;BMP180;21687;48.900;9.188;2023-05-10T04:39:49;97936.00;;;11.80
35582;BMP180;21687;48.900;9.188;2023-05-10T04:42:16;97942.00;;;11.80
35582;BMP180;21687;48.900;9.188;2023-05-10T04:44:42;97941.00;;;11.80
35582;BMP180;21687;48.900;9.188;2023-05-10T04:47:08;97948.00;;;11.80
35582;BMP180;21687;48.900;9.188;2023-05-10T04:49:35;97949.00;;;11.80
35582;BMP180;21687;48.900;9.188;2023-05-10T04:52:01;97954.00;;;11.80
35582;BMP180;21687;48.900;9.188;2023-05-10T04:54:27;97950.00;;;11.80
35582;BMP180;21687;48.900;9.188;2023-05-10T04:56:53;97953.00;;;11.90
35582;BMP180;21687;48.900;9.188;2023-05-10T04:59:20;97949.00;;;11.90
35582;BMP180;21687;48.900;9.188;2023-05-10T05:01:46;97963.00;;;12.00
35582;BMP180;21687;48.900;9.188;2023-05-10T05:04:12;97954.00;;;12.00
35582;BMP180;21687;48.900;9.188;2023-05-10T05:06:40;97949.00;;;12.00
35582;BMP180;21687;48.900;9.188;2023-05-10T05:09:07;97959.00;;;12.10
35582;BMP180;21687;48.900;9.188;2023-05-10T05:11:33;97960.00;;;12.20
35582;BMP180;21687;48.900;9.188;2023-05-10T05:13:59;97960.00;;;12.10
35582;BMP180;21687;48.900;9.188;2023-05-10T05:16:25;97956.00;;;12.20
35582;BMP180;21687;48.900;9.188;2023-05-10T05:18:52;97962.00;;;12.40
35582;BMP180;21687;48.900;9.188;2023-05-10T05:21:19;97967.00;;;12.50
35582;BMP180;21687;48.900;9.188;2023-05-10T05:23:46;97964.00;;;12.60
35582;BMP180;21687;48.900;9.188;2023-05-10T05:26:12;97983.00;;;12.70
35582;BMP180;21687;48.900;9.188;2023-05-10T05:28:39;97971.00;;;12.90
35582;BMP180;21687;48.900;9.188;2023-05-10T05:31:06;97976.00;;;13.10
35582;BMP180;21687;48.900;9.188;2023-05-10T05:33:33;97981.00;;;13.30
35582;BMP180;21687;48.900;9.188;2023-05-10T05:36:06;97981.00;;;13.30
35582;BMP180;21687;48.900;9.188;2023-05-10T05:38:32;97976.00;;;13.40
35582;BMP180;21687;48.900;9.188;2023-05-10T05:40:58;97973.00;;;13.40
35582;BMP180;21687;48.900;9.188;2023-05-10T05:43:25;97976.00;;;13.50
35582;BMP180;21687;48.900;9.188;2023-05-10T05:45:52;97980.00;;;13.50
35582;BMP180;21687;48.900;9.188;2023-05-10T05:48:19;97978.00;;;13.40
35582;BMP180;21687;48.900;9.188;2023-05-10T05:50:46;97977.00;;;13.40
35582;BMP180;21687;48.900;9.188;2023-05-10T05:53:12;97978.00;;;13.50
35582;BMP180;21687;48.900;9.188;2023-05-10T05:55:38;97988.00;;;13.60
35582;BMP180;21687;48.900;9.188;2023-05-10T05:58:05;97988.00;;;13.70
35582;BMP180;21687;48.900;9.188;2023-05-10T06:00:31;97981.00;;;13.50
35582;BMP180;21687;48.900;9.188;2023-05-10T06:02:57;97982.00;;;13.50
35582;BMP180;21687;48.900;9.188;2023-05-10T06:05:23;97990.00;;;13.40
35582;BMP180;21687;48.900;9.188;2023-05-10T06:07:50;97988.00;;;13.50
35582;BMP180;21687;48.900;9.188;2023-05-10T06:10:16;97988.00;;;13.60
35582;BMP180;21687;48.900;9.188;2023-05-10T06:12:42;97993.00;;;13.60
35582;BMP180;21687;48.900;9.188;2023-05-10T06:15:09;97987.00;;;13.70
35582;BMP180;21687;48.900;9.188;2023-05-10T06:17:35;97986.00;;;13.70
35582;BMP180;21687;48.900;9.188;2023-05-10T06:20:02;97997.00;;;13.60
35582;BMP180;21687;48.900;9.188;2023-05-10T06:22:28;97994.00;;;13.70
35582;BMP180;21687;48.900;9.188;2023-05-10T06:24:54;97994.00;;;13.90
35582;BMP180;21687;48.900;9.188;2023-05-10T06:27:21;98004.00;;;14.00
35582;BMP180;21687;48.900;9.188;2023-05-10T06:29:47;98005.00;;;13.90
35582;BMP180;21687;48.900;9.188;2023-05-10T06:32:13;98004.00;;;13.90
35582;BMP180;21687;48.900;9.188;2023-05-10T06:34:39;97997.00;;;13.90
35582;BMP180;21687;48.900;9.188;2023-05-10T06:37:06;98012.00;;;14.00
35582;BMP180;21687;48.900;9.188;2023-05-10T06:39:32;98003.00;;;14.00
35582;BMP180;21687;48.900;9.188;2023-05-10T06:41:58;98006.00;;;14.00
35582;BMP180;21687;48.900;9.188;2023-05-10T06:44:24;98006.00;;;14.10
35582;BMP180;21687;48.900;9.188;2023-05-10T06:46:51;98017.00;;;14.00
35582;BMP180;21687;48.900;9.188;2023-05-10T06:49:18;98009.00;;;14.10
35582;BMP180;21687;48.900;9.188;2023-05-10T06:51:44;98007.00;;;14.30
35582;BMP180;21687;48.900;9.188;2023-05-10T06:54:11;98012.00;;;14.40
35582;BMP180;21687;48.900;9.188;2023-05-10T06:56:37;98013.00;;;14.40
35582;BMP180;21687;48.900;9.188;2023-05-10T06:59:03;98012.00;;;14.40
35582;BMP180;21687;48.900;9.188;2023-05-10T07:01:29;98017.00;;;14.50
35582;BMP180;21687;48.900;9.188;2023-05-10T07:03:56;98022.00;;;14.50
35582;BMP180;21687;48.900;9.188;2023-05-10T07:06:22;98026.00;;;14.60
35582;BMP180;21687;48.900;9.188;2023-05-10T07:08:48;98024.00;;;14.60
35582;BMP180;21687;48.900;9.188;2023-05-10T07:11:15;98024.00;;;14.90
35582;BMP180;21687;48.900;9.188;2023-05-10T07:13:41;98021.00;;;15.10
35582;BMP180;21687;48.900;9.188;2023-05-10T07:16:10;98023.00;;;15.00
35582;BMP180;21687;48.900;9.188;2023-05-10T07:18:36;98028.00;;;15.20
35582;BMP180;21687;48.900;9.188;2023-05-10T07:21:02;98027.00;;;15.20
35582;BMP180;21687;48.900;9.188;2023-05-10T07:23:29;98035.00;;;15.30
35582;BMP180;21687;48.900;9.188;2023-05-10T07:25:56;98039.00;;;15.20
35582;BMP180;21687;48.900;9.188;2023-05-10T07:28:23;98038.00;;;15.10
35582;BMP180;21687;48.900;9.188;2023-05-10T07:30:52;98044.00;;;15.10
35582;BMP180;21687;48.900;9.188;2023-05-10T07:33:18;98039.00;;;15.30
35582;BMP180;21687;48.900;9.188;2023-05-10T07:35:45;98041.00;;;15.60
35582;BMP180;21687;48.900;9.188;2023-05-10T07:38:11;98038.00;;;15.60
35582;BMP180;21687;48.900;9.188;2023-05-10T07:40:38;98043.00;;;15.40
35582;BMP180;21687;48.900;9.188;2023-05-10T07:43:05;98038.00;;;15.40
35582;BMP180;21687;48.900;9.188;2023-05-10T07:45:31;98050.00;;;15.50
35582;BMP180;21687;48.900;9.188;2023-05-10T07:47:57;98053.00;;;15.30
35582;BMP180;21687;48.900;9.188;2023-05-10T07:50:23;98059.00;;;15.30
35582;BMP180;21687;48.900;9.188;2023-05-10T07:52:50;98044.00;;;15.20
35582;BMP180;21687;48.900;9.188;2023-05-10T07:55:17;98050.00;;;15.00
35582;BMP180;21687;48.900;9.188;2023-05-10T07:57:44;98057.00;;;14.90
35582;BMP180;21687;48.900;9.188;2023-05-10T08:00:13;98061.00;;;15.00
35582;BMP180;21687;48.900;9.188;2023-05-10T08:02:40;98056.00;;;15.10
35582;BMP180;21687;48.900;9.188;2023-05-10T08:05:06;98056.00;;;15.10
35582;BMP180;21687;48.900;9.188;2023-05-10T08:07:33;98052.00;;;15.30
35582;BMP180;21687;48.900;9.188;2023-05-10T08:09:59;98071.00;;;15.30
35582;BMP180;21687;48.900;9.188;2023-05-10T08:12:26;98068.00;;;15.10
35582;BMP180;21687;48.900;9.188;2023-05-10T08:14:52;98059.00;;;15.10
35582;BMP180;21687;48.900;9.188;2023-05-10T08:17:18;98065.00;;;15.00
35582;BMP180;21687;48.900;9.188;2023-05-10T08:19:44;98064.00;;;15.00
35582;BMP180;21687;48.900;9.188;2023-05-10T08:22:10;98069.00;;;15.00
35582;BMP180;21687;48.900;9.188;2023-05-10T08:24:37;98072.00;;;15.10
35582;BMP180;21687;48.900;9.188;2023-05-10T08:27:05;98075.00;;;15.10
35582;BMP180;21687;48.900;9.188;2023-05-10T08:29:31;98081.00;;;15.20
35582;BMP180;21687;48.900;9.188;2023-05-10T08:31:58;98081.00;;;15.10
35582;BMP180;21687;48.900;9.188;2023-05-10T08:34:24;98074.00;;;15.10
35582;BMP180;21687;48.900;9.188;2023-05-10T08:36:51;98086.00;;;15.10
35582;BMP180;21687;48.900;9.188;2023-05-10T08:39:17;98082.00;;;15.10
35582;BMP180;21687;48.900;9.188;2023-05-10T08:41:45;98093.00;;;14.90
35582;BMP180;21687;48.900;9.188;2023-05-10T08:44:12;98090.00;;;15.10
35582;BMP180;21687;48.900;9.188;2023-05-10T08:46:41;98087.00;;;15.20
35582;BMP180;21687;48.900;9.188;2023-05-10T08:49:13;98088.00;;;15.20
35582;BMP180;21687;48.900;9.188;2023-05-10T08:51:52;98090.00;;;15.30
35582;BMP180;21687;48.900;9.188;2023-05-10T08:54:21;98091.00;;;15.40
35582;BMP180;21687;48.900;9.188;2023-05-10T08:56:48;98088.00;;;15.40
35582;BMP180;21687;48.900;9.188;2023-05-10T08:59:14;98086.00;;;15.60
35582;BMP180;21687;48.900;9.188;2023-05-10T09:01:43;98090.00;;;15.50
35582;BMP180;21687;48.900;9.188;2023-05-10T09:04:10;98082.00;;;15.60
35582;BMP180;21687;48.900;9.188;2023-05-10T09:06:38;98088.00;;;16.00
35582;BMP180;21687;48.900;9.188;2023-05-10T09:09:04;98101.00;;;16.10
35582;BMP180;21687;48.900;9.188;2023-05-10T09:11:30;98097.00;;;16.10
35582;BMP180;21687;48.900;9.188;2023-05-10T09:13:57;98096.00;;;16.20
35582;BMP180;21687;48.900;9.188;2023-05-10T09:16:24;98104.00;;;16.30
35582;BMP180;21687;48.900;9.188;2023-05-10T09:18:50;98113.00;;;16.00
35582;BMP180;21687;48.900;9.188;2023-05-10T09:21:16;98109.00;;;15.90
35582;BMP180;21687;48.900;9.188;2023-05-10T09:23:44;98113.00;;;16.00
35582;BMP180;21687;48.900;9.188;2023-05-10T09:26:11;98117.00;;;16.10
35582;BMP180;21687;48.900;9.188;2023-05-10T09:28:56;98121.00;;;15.80
35582;BMP180;21687;48.900;9.188;2023-05-10T09:31:23;98119.00;;;15.90
35582;BMP180;21687;48.900;9.188;2023-05-10T09:33:51;98111.00;;;16.00
35582;BMP180;21687;48.900;9.188;2023-05-10T09:36:18;98120.00;;;16.20
35582;BMP180;21687;48.900;9.188;2023-05-10T09:38:48;98114.00;;;16.20
35582;BMP180;21687;48.900;9.188;2023-05-10T09:41:22;98112.00;;;16.50
35582;BMP180;21687;48.900;9.188;2023-05-10T09:43:49;98110.00;;;17.00
35582;BMP180;21687;48.900;9.188;2023-05-10T09:46:16;98111.00;;;17.00
35582;BMP180;21687;48.900;9.188;2023-05-10T09:48:45;98113.00;;;17.30
35582;BMP180;21687;48.900;9.188;2023-05-10T09:51:22;98116.00;;;17.20
35582;BMP180;21687;48.900;9.188;2023-05-10T09:56:35;98110.00;;;17.70
35582;BMP180;21687;48.900;9.188;2023-05-10T09:59:06;98123.00;;;17.40
35582;BMP180;21687;48.900;9.188;2023-05-10T10:01:33;98127.00;;;17.40
35582;BMP180;21687;48.900;9.188;2023-05-10T10:04:00;98117.00;;;17.40
35582;BMP180;21687;48.900;9.188;2023-05-10T10:06:28;98122.00;;;17.20
35582;BMP180;21687;48.900;9.188;2023-05-10T10:08:54;98123.00;;;17.40
35582;BMP180;21687;48.900;9.188;2023-05-10T10:11:23;98126.00;;;16.90
35582;BMP180;21687;48.900;9.188;2023-05-10T10:13:50;98122.00;;;16.80
35582;BMP180;21687;48.900;9.188;2023-05-10T10:16:16;98139.00;;;16.60
35582;BMP180;21687;48.900;9.188;2023-05-10T10:18:42;98134.00;;;16.30
35582;BMP180;21687;48.900;9.188;2023-05-10T10:21:09;98130.00;;;16.40
35582;BMP180;21687;48.900;9.188;2023-05-10T10:23:36;98127.00;;;16.40
35582;BMP180;21687;48.900;9.188;2023-05-10T10:26:03;98119.00;;;16.30
35582;BMP180;21687;48.900;9.188;2023-05-10T10:28:40;98123.00;;;16.30
35582;BMP180;21687;48.900;9.188;2023-05-10T10:34:05;98113.00;;;16.50
35582;BMP180;21687;48.900;9.188;2023-05-10T10:36:44;98117.00;;;16.60
35582;BMP180;21687;48.900;9.188;2023-05-10T10:39:11;98116.00;;;16.80
35582;BMP180;21687;48.900;9.188;2023-05-10T10:41:53;98113.00;;;17.00
35582;BMP180;21687;48.900;9.188;2023-05-10T10:55:14;98123.00;;;17.20
35582;BMP180;21687;48.900;9.188;2023-05-10T11:00:28;98129.00;;;17.00
35582;BMP180;21687;48.900;9.188;2023-05-10T11:08:13;98136.00;;;16.70
35582;BMP180;21687;48.900;9.188;2023-05-10T11:10:48;98128.00;;;16.20
35582;BMP180;21687;48.900;9.188;2023-05-10T11:13:14;98140.00;;;16.50
35582;BMP180;21687;48.900;9.188;2023-05-10T11:15:48;98131.00;;;16.20
35582;BMP180;21687;48.900;9.188;2023-05-10T11:18:26;98136.00;;;16.10
35582;BMP180;21687;48.900;9.188;2023-05-10T11:21:00;98133.00;;;16.20
35582;BMP180;21687;48.900;9.188;2023-05-10T11:23:47;98147.00;;;16.40
35582;BMP180;21687;48.900;9.188;2023-05-10T11:26:13;98144.00;;;16.60
35582;BMP180;21687;48.900;9.188;2023-05-10T11:28:47;98132.00;;;16.80
35582;BMP180;21687;48.900;9.188;2023-05-10T11:31:15;98133.00;;;17.20
35582;BMP180;21687;48.900;9.188;2023-05-10T11:33:53;98119.00;;;17.50
35582;BMP180;21687;48.900;9.188;2023-05-10T11:36:26;98140.00;;;17.80
35582;BMP180;21687;48.900;9.188;2023-05-10T11:38:54;98128.00;;;17.30
35582;BMP180;21687;48.900;9.188;2023-05-10T11:41:40;98134.00;;;17.80
35582;BMP180;21687;48.900;9.188;2023-05-10T11:44:06;98130.00;;;18.10
35582;BMP180;21687;48.900;9.188;2023-05-10T11:46:35;98134.00;;;17.80
35582;BMP180;21687;48.900;9.188;2023-05-10T11:49:03;98132.00;;;17.60
35582;BMP180;21687;48.900;9.188;2023-05-10T11:51:36;98143.00;;;17.50
35582;BMP180;21687;48.900;9.188;2023-05-10T11:54:07;98141.00;;;17.60
35582;BMP180;21687;48.900;9.188;2023-05-10T11:56:36;98135.00;;;17.70
35582;BMP180;21687;48.900;9.188;2023-05-10T11:59:02;98142.00;;;17.60
35582;BMP180;21687;48.900;9.188;2023-05-10T12:01:29;98145.00;;;17.80
35582;BMP180;21687;48.900;9.188;2023-05-10T12:03:57;98140.00;;;17.60
35582;BMP180;21687;48.900;9.188;2023-05-10T12:06:28;98151.00;;;18.10
35582;BMP180;21687;48.900;9.188;2023-05-10T12:08:55;98155.00;;;17.80
35582;BMP180;21687;48.900;9.188;2023-05-10T12:11:25;98156.00;;;17.30
35582;BMP180;21687;48.900;9.188;2023-05-10T12:13:52;98148.00;;;17.30
35582;BMP180;21687;48.900;9.188;2023-05-10T12:16:24;98145.00;;;17.60
35582;BMP180;21687;48.900;9.188;2023-05-10T12:18:58;98147.00;;;17.90
35582;BMP180;21687;48.900;9.188;2023-05-10T12:21:25;98154.00;;;17.80
35582;BMP180;21687;48.900;9.188;2023-05-10T12:24:01;98161.00;;;17.30
35582;BMP180;21687;48.900;9.188;2023-05-10T12:26:28;98164.00;;;17.10
35582;BMP180;21687;48.900;9.188;2023-05-10T12:29:11;98165.00;;;16.80
35582;BMP180;21687;48.900;9.188;2023-05-10T12:32:00;98172.00;;;16.50
35582;BMP180;21687;48.900;9.188;2023-05-10T12:34:34;98173.00;;;16.40
35582;BMP180;21687;48.900;9.188;2023-05-10T12:37:02;98180.00;;;16.00
35582;BMP180;21687;48.900;9.188;2023-05-10T12:39:40;98180.00;;;16.10
35582;BMP180;21687;48.900;9.188;2023-05-10T12:42:07;98186.00;;;16.20
35582;BMP180;21687;48.900;9.188;2023-05-10T12:44:33;98178.00;;;16.10
35582;BMP180;21687;48.900;9.188;2023-05-10T12:46:59;98184.00;;;16.30
35582;BMP180;21687;48.900;9.188;2023-05-10T12:49:26;98185.00;;;16.50
35582;BMP180;21687;48.900;9.188;2023-05-10T12:51:52;98181.00;;;16.50
35582;BMP180;21687;48.900;9.188;2023-05-10T12:54:18;98178.00;;;16.40
35582;BMP180;21687;48.900;9.188;2023-05-10T12:56:44;98175.00;;;16.90
35582;BMP180;21687;48.900;9.188;2023-05-10T12:59:11;98183.00;;;17.00
35582;BMP180;21687;48.900;9.188;2023-05-10T13:01:37;98181.00;;;17.00
35582;BMP180;21687;48.900;9.188;2023-05-10T13:04:03;98184.00;;;16.90
35582;BMP180;21687;48.900;9.188;2023-05-10T13:06:30;98187.00;;;16.80
35582;BMP180;21687;48.900;9.188;2023-05-10T13:08:56;98176.00;;;16.90
35582;BMP180;21687;48.900;9.188;2023-05-10T13:11:23;98180.00;;;16.90
35582;BMP180;21687;48.900;9.188;2023-05-10T13:13:49;98176.00;;;17.00
35582;BMP180;21687;48.900;9.188;2023-05-10T13:16:16;98192.00;;;17.30
35582;BMP180;21687;48.900;9.188;2023-05-10T13:18:42;98190.00;;;17.30
35582;BMP180;21687;48.900;9.188;2023-05-10T13:21:08;98187.00;;;17.30
35582;BMP180;21687;48.900;9.188;2023-05-10T13:23:35;98178.00;;;17.10
35582;BMP180;21687;48.900;9.188;2023-05-10T13:26:01;98171.00;;;17.10
35582;BMP180;21687;48.900;9.188;2023-05-10T13:28:27;98180.00;;;17.30
35582;BMP180;21687;48.900;9.188;2023-05-10T13:30:53;98177.00;;;17.10
35582;BMP180;21687;48.900;9.188;2023-05-10T13:33:20;98177.00;;;17.10
35582;BMP180;21687;48.900;9.188;2023-05-10T13:35:48;98173.00;;;17.20
35582;BMP180;21687;48.900;9.188;2023-05-10T13:38:17;98171.00;;;16.70
35582;BMP180;21687;48.900;9.188;2023-05-10T13:40:44;98179.00;;;16.50
35582;BMP180;21687;48.900;9.188;2023-05-10T13:43:10;98175.00;;;16.50
35582;BMP180;21687;48.900;9.188;2023-05-10T13:45:37;98175.00;;;16.60
35582;BMP180;21687;48.900;9.188;2023-05-10T13:48:03;98171.00;;;16.80
35582;BMP180;21687;48.900;9.188;2023-05-10T13:50:29;98174.00;;;17.10
35582;BMP180;21687;48.900;9.188;2023-05-10T13:52:56;98172.00;;;16.90
35582;BMP180;21687;48.900;9.188;2023-05-10T13:55:22;98158.00;;;17.10
35582;BMP180;21687;48.900;9.188;2023-05-10T13:57:50;98168.00;;;17.20
35582;BMP180;21687;48.900;9.188;2023-05-10T14:00:17;98160.00;;;16.90
35582;BMP180;21687;48.900;9.188;2023-05-10T14:02:46;98160.00;;;16.80
35582;BMP180;21687;48.900;9.188;2023-05-10T14:05:13;98167.00;;;16.80
35582;BMP180;21687;48.900;9.188;2023-05-10T14:07:43;98154.00;;;17.00
35582;BMP180;21687;48.900;9.188;2023-05-10T14:10:09;98156.00;;;17.20
35582;BMP180;21687;48.900;9.188;2023-05-10T14:12:36;98155.00;;;17.00
35582;BMP180;21687;48.900;9.188;2023-05-10T14:15:02;98156.00;;;17.20
35582;BMP180;21687;48.900;9.188;2023-05-10T14:17:32;98156.00;;;17.10
35582;BMP180;21687;48.900;9.188;2023-05-10T14:19:58;98155.00;;;17.10
35582;BMP180;21687;48.900;9.188;2023-05-10T14:22:24;98152.00;;;16.70
35582;BMP180;21687;48.900;9.188;2023-05-10T14:24:51;98157.00;;;16.40
35582;BMP180;21687;48.900;9.188;2023-05-10T14:27:17;98150.00;;;16.30
35582;BMP180;21687;48.900;9.188;2023-05-10T14:29:44;98155.00;;;16.50
35582;BMP180;21687;48.900;9.188;2023-05-10T14:32:10;98141.00;;;16.60
35582;BMP180;21687;48.900;9.188;2023-05-10T14:34:36;98155.00;;;16.60
35582;BMP180;21687;48.900;9.188;2023-05-10T14:37:03;98152.00;;;16.90
35582;BMP180;21687;48.900;9.188;2023-05-10T14:39:30;98158.00;;;17.00
35582;BMP180;21687;48.900;9.188;2023-05-10T14:41:57;98155.00;;;17.10
35582;BMP180;21687;48.900;9.188;2023-05-10T14:44:24;98156.00;;;17.00
35582;BMP180;21687;48.900;9.188;2023-05-10T14:46:51;98150.00;;;17.20
35582;BMP180;21687;48.900;9.188;2023-05-10T14:49:17;98161.00;;;17.30
35582;BMP180;21687;48.900;9.188;2023-05-10T14:51:44;98150.00;;;17.20
35582;BMP180;21687;48.900;9.188;2023-05-10T14:54:11;98156.00;;;17.20
35582;BMP180;21687;48.900;9.188;2023-05-10T14:56:37;98148.00;;;17.30
35582;BMP180;21687;48.900;9.188;2023-05-10T14:59:07;98151.00;;;17.30
35582;BMP180;21687;48.900;9.188;2023-05-10T15:01:34;98159.00;;;17.40